createdAt,value
2024-04-25T00:02:17.559Z,79.95
2024-04-25T00:04:43.896Z,80.54
2024-04-25T00:07:10.143Z,81.09
2024-04-25T00:09:36.483Z,81.64
2024-04-25T00:12:03.018Z,82.19
2024-04-25T00:14:29.184Z,82.79
2024-04-25T00:16:55.611Z,83.36
2024-04-25T00:19:21.862Z,83.95
2024-04-25T00:21:48.195Z,84.44
2024-04-25T00:24:14.512Z,85.01
2024-04-25T00:26:40.872Z,85.63
2024-04-25T00:29:07.196Z,86.19
2024-04-25T00:31:33.521Z,86.72
2024-04-25T00:34:00.060Z,87.26
2024-04-25T00:36:26.188Z,87.77
2024-04-25T00:38:52.505Z,88.29
2024-04-25T00:41:18.931Z,88.85
2024-04-25T00:43:45.189Z,89.33
2024-04-25T00:46:11.590Z,89.87
2024-04-25T00:48:38.021Z,90.39
2024-04-25T00:51:04.386Z,90.91
2024-04-25T00:53:30.786Z,91.36
2024-04-25T00:55:57.041Z,91.88
2024-04-25T00:58:23.482Z,92.37
2024-04-25T01:00:49.814Z,92.85
2024-04-25T01:03:16.135Z,93.28
2024-04-25T01:05:42.488Z,93.81
2024-04-25T01:08:08.823Z,94.30
2024-04-25T01:10:35.108Z,94.74
2024-04-25T01:13:01.425Z,95.20
2024-04-25T01:15:27.869Z,95.58
2024-04-25T01:17:54.333Z,95.93
2024-04-25T01:20:20.545Z,96.42
2024-04-25T01:22:46.854Z,96.80
2024-04-25T01:25:13.168Z,97.14
2024-04-25T01:27:39.521Z,97.59
2024-04-25T01:30:05.854Z,97.94
2024-04-25T01:32:32.377Z,98.21
2024-04-25T01:34:58.486Z,98.47
2024-04-25T01:37:24.805Z,98.83
2024-04-25T01:39:51.125Z,99.11
2024-04-25T01:42:17.478Z,99.40
2024-04-25T01:44:43.839Z,99.72
2024-04-25T01:47:10.184Z,100.00
2024-04-25T01:49:36.507Z,100.00
2024-04-25T01:52:02.844Z,100.00
2024-04-25T01:54:29.177Z,100.00
2024-04-25T01:56:55.528Z,100.00
2024-04-25T01:59:21.959Z,100.00
2024-04-25T02:01:48.251Z,100.00
2024-04-25T02:04:14.678Z,100.00
2024-04-25T02:06:40.958Z,100.00
2024-04-25T02:09:07.288Z,100.00
2024-04-25T02:11:33.708Z,100.00
2024-04-25T02:13:59.982Z,100.00
2024-04-25T02:16:26.299Z,100.00
2024-04-25T02:18:52.687Z,100.00
2024-04-25T02:21:18.980Z,100.00
2024-04-25T02:23:45.303Z,100.00
2024-04-25T02:26:11.655Z,100.00
2024-04-25T02:28:37.987Z,100.00
2024-04-25T02:31:04.282Z,100.00
2024-04-25T02:33:30.665Z,100.00
2024-04-25T02:35:57.013Z,100.00
2024-04-25T02:38:23.378Z,100.00
2024-04-25T02:40:49.647Z,100.00
2024-04-25T02:43:16.163Z,100.00
2024-04-25T02:45:42.466Z,100.00
2024-04-25T02:48:08.866Z,100.00
2024-04-25T02:50:35.248Z,100.00
2024-04-25T02:53:01.454Z,100.00
2024-04-25T02:55:27.764Z,100.00
2024-04-25T02:57:54.122Z,100.00
2024-04-25T03:00:20.425Z,100.00
2024-04-25T03:02:46.901Z,100.00
2024-04-25T03:05:13.133Z,100.00
2024-04-25T03:07:39.430Z,100.00
2024-04-25T03:10:05.812Z,100.00
2024-04-25T03:12:32.155Z,100.00
2024-04-25T03:14:58.446Z,100.00
2024-04-25T03:17:24.883Z,100.00
2024-04-25T03:19:51.142Z,100.00
2024-04-25T03:22:17.487Z,100.00
2024-04-25T03:24:43.826Z,100.00
2024-04-25T03:27:10.153Z,100.00
2024-04-25T03:29:36.533Z,100.00
2024-04-25T03:32:02.824Z,100.00
2024-04-25T03:34:29.112Z,100.00
2024-04-25T03:36:55.463Z,100.00
2024-04-25T03:39:21.830Z,100.00
2024-04-25T03:41:48.130Z,100.00
2024-04-25T03:44:14.519Z,100.00
2024-04-25T03:46:40.776Z,100.00
2024-04-25T03:49:07.154Z,100.00
2024-04-25T03:51:33.544Z,100.00
2024-04-25T03:53:59.905Z,100.00
2024-04-25T03:56:26.232Z,100.00
2024-04-25T03:58:52.545Z,100.00
2024-04-25T04:01:19.025Z,100.00
2024-04-25T04:03:45.284Z,100.00
2024-04-25T04:06:11.538Z,100.00
2024-04-25T04:08:38.123Z,100.00
2024-04-25T04:11:04.247Z,100.00
2024-04-25T04:13:30.522Z,100.00
2024-04-25T04:15:56.957Z,100.00
2024-04-25T04:18:23.343Z,100.00
2024-04-25T04:20:49.685Z,100.00
2024-04-25T04:23:15.992Z,100.00
2024-04-25T04:25:42.290Z,100.00
2024-04-25T04:28:10.213Z,100.00
2024-04-25T04:30:34.941Z,100.00
2024-04-25T04:33:01.461Z,100.00
2024-04-25T04:35:27.763Z,100.00
2024-04-25T04:37:54.083Z,100.00
2024-04-25T04:40:20.418Z,100.00
2024-04-25T04:42:46.740Z,100.00
2024-04-25T04:45:13.073Z,100.00
2024-04-25T04:47:39.465Z,100.00
2024-04-25T04:50:05.810Z,100.00
2024-04-25T04:52:32.126Z,100.00
2024-04-25T04:54:58.470Z,100.00
2024-04-25T04:57:24.897Z,100.00
2024-04-25T04:59:51.237Z,100.00
2024-04-25T05:02:17.655Z,100.00
2024-04-25T05:04:43.912Z,95.78
2024-04-25T05:07:10.232Z,92.52
2024-04-25T05:09:36.575Z,90.97
2024-04-25T05:12:02.955Z,90.50
2024-04-25T05:14:29.351Z,89.22
2024-04-25T05:16:55.658Z,87.69
2024-04-25T05:19:21.968Z,87.20
2024-04-25T05:21:48.303Z,86.63
2024-04-25T05:24:14.640Z,85.66
2024-04-25T05:26:41.070Z,85.48
2024-04-25T05:29:07.335Z,84.65
2024-04-25T05:31:33.781Z,83.91
2024-04-25T05:34:00.297Z,83.45
2024-04-25T05:36:26.470Z,83.09
2024-04-25T05:38:52.813Z,82.83
2024-04-25T05:41:19.177Z,83.16
2024-04-25T05:43:45.510Z,82.86
2024-04-25T05:46:11.881Z,82.81
2024-04-25T05:48:38.349Z,82.94
2024-04-25T05:51:04.592Z,82.72
2024-04-25T05:53:30.982Z,82.47
2024-04-25T05:55:57.336Z,82.82
2024-04-25T05:58:23.646Z,82.88
2024-04-25T06:00:49.984Z,82.79
2024-04-25T06:03:16.408Z,82.68
2024-04-25T06:05:42.729Z,82.52
2024-04-25T06:08:09.056Z,82.27
2024-04-25T06:10:35.335Z,82.00
2024-04-25T06:13:01.813Z,81.76
2024-04-25T06:15:28.004Z,81.92
2024-04-25T06:17:54.485Z,81.78
2024-04-25T06:20:20.743Z,81.61
2024-04-25T06:22:47.025Z,81.10
2024-04-25T06:25:13.355Z,81.02
2024-04-25T06:27:39.677Z,80.85
2024-04-25T06:30:06.021Z,80.57
2024-04-25T06:32:34.698Z,80.36
2024-04-25T06:34:58.684Z,80.35
2024-04-25T06:37:25.057Z,80.39
2024-04-25T06:39:51.376Z,79.80
2024-04-25T06:42:17.750Z,79.27
2024-04-25T06:44:50.110Z,79.71
2024-04-25T06:47:10.406Z,79.68
2024-04-25T06:49:36.685Z,79.63
2024-04-25T06:52:03.036Z,79.31
2024-04-25T06:54:30.374Z,79.09
2024-04-25T06:56:55.704Z,79.14
2024-04-25T06:59:22.089Z,79.14
2024-04-25T07:01:48.451Z,79.00
2024-04-25T07:04:14.718Z,78.73
2024-04-25T07:06:41.022Z,78.72
2024-04-25T07:09:07.335Z,78.62
2024-04-25T07:11:33.719Z,78.56
2024-04-25T07:14:00.010Z,78.66
2024-04-25T07:16:26.332Z,78.60
2024-04-25T07:18:52.763Z,79.04
2024-04-25T07:21:19.027Z,79.62
2024-04-25T07:23:45.374Z,79.84
2024-04-25T07:26:11.797Z,79.77
2024-04-25T07:28:38.131Z,79.89
2024-04-25T07:31:04.480Z,80.21
2024-04-25T07:33:30.989Z,80.25
2024-04-25T07:35:57.200Z,80.12
2024-04-25T07:38:23.533Z,79.79
2024-04-25T07:40:49.832Z,80.23
2024-04-25T07:43:16.171Z,79.82
2024-04-25T07:45:43.505Z,79.72
2024-04-25T07:48:08.954Z,79.72
2024-04-25T07:50:35.200Z,79.57
2024-04-25T07:53:01.490Z,79.99
2024-04-25T07:55:27.833Z,79.84
2024-04-25T07:57:54.148Z,79.58
2024-04-25T08:00:20.528Z,79.86
2024-04-25T08:02:48.954Z,79.52
2024-04-25T08:05:13.205Z,79.55
2024-04-25T08:07:39.559Z,79.17
2024-04-25T08:10:05.885Z,78.91
2024-04-25T08:12:32.221Z,78.67
2024-04-25T08:14:58.536Z,78.80
2024-04-25T08:17:24.861Z,78.83
2024-04-25T08:19:51.170Z,78.91
2024-04-25T08:22:17.519Z,78.58
2024-04-25T08:24:43.834Z,78.65
2024-04-25T08:27:10.175Z,78.71
2024-04-25T08:29:36.544Z,78.24
2024-04-25T08:32:02.827Z,78.34
2024-04-25T08:34:29.136Z,78.07
2024-04-25T08:36:55.470Z,78.07
2024-04-25T08:39:21.784Z,78.04
2024-04-25T08:41:48.191Z,77.69
2024-04-25T08:44:16.357Z,78.04
2024-04-25T08:46:40.920Z,78.40
2024-04-25T08:49:07.231Z,78.39
2024-04-25T08:51:33.541Z,78.61
2024-04-25T08:53:59.884Z,79.09
2024-04-25T08:56:26.206Z,79.26
2024-04-25T08:58:52.507Z,79.27
2024-04-25T09:01:19.020Z,79.20
2024-04-25T09:03:45.305Z,78.86
2024-04-25T09:06:11.699Z,78.02
2024-04-25T09:08:38.172Z,77.57
2024-04-25T09:11:04.410Z,76.85
2024-04-25T09:13:30.737Z,76.06
2024-04-25T09:15:57.075Z,76.03
2024-04-25T09:18:23.472Z,76.15
2024-04-25T09:20:49.896Z,75.87
2024-04-25T09:23:16.240Z,75.69
2024-04-25T09:25:42.511Z,75.34
2024-04-25T09:28:08.928Z,75.40
2024-04-25T09:30:35.251Z,74.36
2024-04-25T09:33:01.679Z,73.97
2024-04-25T09:35:27.917Z,73.94
2024-04-25T09:37:54.227Z,73.60
2024-04-25T09:40:20.569Z,72.79
2024-04-25T09:42:46.900Z,72.83
2024-04-25T09:45:13.206Z,72.74
2024-04-25T09:47:39.659Z,72.67
2024-04-25T09:50:05.926Z,72.94
2024-04-25T09:52:32.206Z,71.92
2024-04-25T09:54:58.549Z,71.60
2024-04-25T09:57:24.982Z,71.70
2024-04-25T09:59:51.326Z,71.54
2024-04-25T10:02:17.860Z,71.49
2024-04-25T10:04:43.960Z,71.17
2024-04-25T10:07:10.423Z,70.70
2024-04-25T10:09:36.726Z,70.78
2024-04-25T10:12:03.135Z,70.95
2024-04-25T10:14:29.555Z,71.05
2024-04-25T10:16:55.754Z,70.71
2024-04-25T10:19:22.078Z,70.95
2024-04-25T10:21:48.463Z,70.69
2024-04-25T10:24:14.743Z,69.52
2024-04-25T10:26:41.162Z,69.21
2024-04-25T10:29:07.446Z,69.35
2024-04-25T10:31:33.823Z,69.55
2024-04-25T10:34:01.383Z,69.65
2024-04-25T10:36:26.595Z,69.86
2024-04-25T10:38:58.668Z,69.98
2024-04-25T10:41:19.301Z,69.95
2024-04-25T10:43:45.719Z,70.10
2024-04-25T10:46:12.030Z,70.33
2024-04-25T10:48:38.579Z,70.71
2024-04-25T10:51:04.731Z,70.81
2024-04-25T10:53:31.067Z,70.92
2024-04-25T10:55:57.373Z,70.95
2024-04-25T10:58:23.731Z,70.70
2024-04-25T11:00:50.520Z,70.70
2024-04-25T11:03:16.861Z,70.75
2024-04-25T11:05:43.236Z,71.29
2024-04-25T11:08:09.492Z,71.36
2024-04-25T11:10:35.821Z,71.74
2024-04-25T11:13:02.146Z,73.34
2024-04-25T11:15:28.528Z,74.88
2024-04-25T11:18:01.010Z,73.05
2024-04-25T11:20:21.343Z,71.77
2024-04-25T11:22:52.319Z,71.13
2024-04-25T11:25:13.923Z,70.45
2024-04-25T11:27:40.258Z,70.42
2024-04-25T11:30:06.688Z,70.25
2024-04-25T11:32:33.087Z,70.38
2024-04-25T11:34:59.451Z,70.28
2024-04-25T11:37:25.773Z,70.31
2024-04-25T11:39:52.181Z,70.38
2024-04-25T11:42:18.469Z,70.57
2024-04-25T11:44:44.801Z,70.88
2024-04-25T11:47:11.196Z,70.78
2024-04-25T11:49:37.484Z,70.99
2024-04-25T11:52:03.805Z,71.08
2024-04-25T11:54:30.126Z,70.48
2024-04-25T11:56:56.585Z,70.80
2024-04-25T11:59:22.920Z,71.06
2024-04-25T12:01:51.723Z,71.18
2024-04-25T12:04:15.759Z,71.01
2024-04-25T12:06:42.090Z,70.45
2024-04-25T12:09:08.412Z,70.19
2024-04-25T12:11:34.793Z,70.17
2024-04-25T12:14:01.063Z,70.39
2024-04-25T12:16:27.478Z,70.38
2024-04-25T12:18:53.812Z,70.56
2024-04-25T12:21:20.252Z,70.91
2024-04-25T12:23:46.621Z,71.31
2024-04-25T12:26:13.057Z,71.59
2024-04-25T12:28:39.466Z,71.65
2024-04-25T12:31:05.783Z,71.84
2024-04-25T12:33:32.332Z,72.09
2024-04-25T12:35:58.559Z,72.02
2024-04-25T12:38:24.931Z,72.04
2024-04-25T12:40:51.270Z,72.18
2024-04-25T12:43:17.554Z,72.31
2024-04-25T12:45:44.022Z,72.44
2024-04-25T12:48:10.439Z,72.25
2024-04-25T12:50:36.728Z,72.00
2024-04-25T12:53:02.986Z,71.95
2024-04-25T12:55:29.399Z,71.70
2024-04-25T12:57:55.736Z,71.58
2024-04-25T13:00:22.080Z,71.24
2024-04-25T13:02:48.531Z,71.07
2024-04-25T13:05:14.858Z,71.32
2024-04-25T13:07:41.114Z,71.59
2024-04-25T13:10:07.487Z,71.57
2024-04-25T13:12:34.903Z,71.22
2024-04-25T13:15:01.267Z,70.94
2024-04-25T13:17:28.253Z,71.40
2024-04-25T13:19:53.963Z,71.59
2024-04-25T13:22:20.299Z,71.55
2024-04-25T13:24:46.667Z,71.23
2024-04-25T13:27:13.004Z,70.21
2024-04-25T13:29:39.349Z,70.23
2024-04-25T13:32:06.080Z,70.35
2024-04-25T13:34:32.424Z,70.23
2024-04-25T13:36:58.889Z,70.34
2024-04-25T13:39:25.278Z,70.37
2024-04-25T13:41:51.761Z,70.56
2024-04-25T13:44:18.066Z,70.39
2024-04-25T13:46:44.496Z,70.58
2024-04-25T13:49:10.939Z,70.62
2024-04-25T13:51:37.159Z,70.67
2024-04-25T13:54:03.519Z,70.69
2024-04-25T13:56:29.887Z,70.98
2024-04-25T13:58:56.240Z,70.72
2024-04-25T14:01:22.577Z,70.58
2024-04-25T14:03:48.946Z,70.42
2024-04-25T14:06:15.231Z,70.06
2024-04-25T14:08:41.617Z,70.19
2024-04-25T14:11:07.959Z,70.28
2024-04-25T14:13:34.269Z,70.48
2024-04-25T14:16:00.667Z,70.66
2024-04-25T14:18:27.115Z,70.56
2024-04-25T14:20:53.439Z,70.63
2024-04-25T14:23:22.030Z,70.40
2024-04-25T14:25:48.355Z,70.37
2024-04-25T14:28:14.761Z,70.46
2024-04-25T14:30:41.097Z,70.65
2024-04-25T14:33:07.617Z,70.59
2024-04-25T14:35:33.840Z,70.48
2024-04-25T14:38:00.156Z,70.52
2024-04-25T14:40:26.445Z,70.36
2024-04-25T14:42:52.774Z,69.61
2024-04-25T14:45:19.099Z,69.16
2024-04-25T14:47:45.581Z,68.83
2024-04-25T14:50:11.748Z,68.72
2024-04-25T14:52:38.096Z,68.59
2024-04-25T14:55:04.422Z,68.38
2024-04-25T14:57:30.757Z,68.45
2024-04-25T14:59:57.144Z,68.53
2024-04-25T15:02:23.474Z,68.66
2024-04-25T15:04:49.766Z,68.70
2024-04-25T15:07:16.118Z,68.76
2024-04-25T15:09:42.483Z,69.04
2024-04-25T15:12:08.822Z,69.39
2024-04-25T15:14:35.216Z,69.74
2024-04-25T15:17:01.522Z,69.91
2024-04-25T15:19:27.797Z,70.11
2024-04-25T15:21:54.132Z,70.35
2024-04-25T15:24:20.474Z,70.85
2024-04-25T15:26:46.843Z,71.16
2024-04-25T15:29:13.123Z,71.71
2024-04-25T15:31:39.467Z,71.93
2024-04-25T15:34:05.921Z,72.04
2024-04-25T15:36:32.106Z,72.09
2024-04-25T15:38:58.478Z,72.26
2024-04-25T15:41:24.798Z,72.15
2024-04-25T15:43:51.093Z,72.07
2024-04-25T15:46:17.435Z,72.10
2024-04-25T15:48:44.076Z,72.06
2024-04-25T15:51:10.223Z,72.49
2024-04-25T15:53:36.568Z,72.48
2024-04-25T15:56:03.175Z,72.41
2024-04-25T15:58:29.514Z,72.66
2024-04-25T16:00:55.934Z,72.85
2024-04-25T16:03:22.418Z,73.04
2024-04-25T16:05:48.723Z,73.00
2024-04-25T16:08:14.990Z,73.05
2024-04-25T16:10:41.254Z,73.25
2024-04-25T16:13:07.598Z,73.25
2024-04-25T16:15:34.039Z,72.90
2024-04-25T16:18:00.470Z,72.53
2024-04-25T16:20:26.872Z,71.94
2024-04-25T16:22:53.126Z,71.54
2024-04-25T16:25:19.437Z,72.41
2024-04-25T16:27:45.784Z,73.02
2024-04-25T16:30:12.111Z,72.26
2024-04-25T16:32:38.771Z,71.50
2024-04-25T16:35:05.039Z,70.81
2024-04-25T16:37:31.312Z,70.41
2024-04-25T16:39:57.671Z,70.26
2024-04-25T16:42:24.010Z,70.02
2024-04-25T16:44:50.449Z,70.16
2024-04-25T16:47:16.765Z,70.41
2024-04-25T16:49:43.133Z,70.44
2024-04-25T16:52:10.638Z,70.56
2024-04-25T16:54:35.874Z,70.19
2024-04-25T16:57:02.247Z,70.35
2024-04-25T16:59:28.547Z,70.52
2024-04-25T17:01:55.955Z,70.70
2024-04-25T17:04:22.306Z,70.60
2024-04-25T17:06:48.617Z,70.93
2024-04-25T17:09:14.958Z,70.77
2024-04-25T17:11:41.576Z,76.59
2024-04-25T17:14:07.808Z,75.38
2024-04-25T17:16:35.696Z,74.14
2024-04-25T17:19:00.638Z,73.69
2024-04-25T17:21:26.908Z,73.33
2024-04-25T17:23:53.324Z,72.98
2024-04-25T17:26:19.702Z,73.10
2024-04-25T17:28:45.980Z,73.00
2024-04-25T17:31:14.516Z,73.01
2024-04-25T17:33:41.016Z,72.77
2024-04-25T17:36:07.166Z,72.98
2024-04-25T17:38:33.556Z,73.17
2024-04-25T17:41:02.074Z,73.06
2024-04-25T17:43:28.416Z,72.90
2024-04-25T17:45:54.824Z,72.78
2024-04-25T17:48:21.369Z,80.06
2024-04-25T17:50:47.625Z,79.29
2024-04-25T17:53:13.937Z,77.55
2024-04-25T17:55:40.258Z,76.27
2024-04-25T17:58:06.598Z,75.85
2024-04-25T18:00:32.967Z,75.67
2024-04-25T18:02:59.327Z,75.58
2024-04-25T18:05:25.647Z,75.55
2024-04-25T18:07:52.071Z,75.31
2024-04-25T18:10:18.384Z,75.35
2024-04-25T18:12:47.119Z,75.15
2024-04-25T18:15:13.517Z,75.08
2024-04-25T18:17:40.014Z,75.00
2024-04-25T18:20:06.174Z,75.16
2024-04-25T18:22:32.507Z,75.34
2024-04-25T18:24:58.890Z,76.72
2024-04-25T18:27:25.218Z,77.85
2024-04-25T18:29:51.798Z,78.11
2024-04-25T18:32:18.076Z,78.60
2024-04-25T18:34:44.407Z,79.30
2024-04-25T18:37:10.841Z,79.97
2024-04-25T18:39:37.176Z,80.74
2024-04-25T18:42:06.266Z,81.51
2024-04-25T18:44:29.909Z,82.25
2024-04-25T18:46:56.167Z,82.95
2024-04-25T18:49:22.556Z,83.73
2024-04-25T18:51:48.833Z,84.50
2024-04-25T18:54:15.179Z,85.22
2024-04-25T18:56:41.502Z,85.93
2024-04-25T18:59:07.817Z,86.76
2024-04-25T19:01:34.144Z,87.44
2024-04-25T19:04:00.579Z,88.18
2024-04-25T19:06:26.801Z,88.86
2024-04-25T19:08:53.169Z,89.58
2024-04-25T19:11:19.882Z,90.23
2024-04-25T19:13:46.114Z,90.84
2024-04-25T19:16:12.477Z,91.45
2024-04-25T19:18:38.821Z,92.02
2024-04-25T19:21:05.176Z,92.58
2024-04-25T19:23:31.565Z,93.42
2024-04-25T19:25:57.830Z,94.95
2024-04-25T19:28:24.212Z,95.55
2024-04-25T19:30:50.585Z,95.85
2024-04-25T19:33:17.076Z,96.12
2024-04-25T19:35:43.257Z,96.33
2024-04-25T19:38:09.564Z,96.55
2024-04-25T19:40:35.921Z,96.78
2024-04-25T19:43:02.245Z,97.07
2024-04-25T19:45:28.632Z,97.36
2024-04-25T19:47:55.097Z,97.62
2024-04-25T19:50:21.294Z,97.82
2024-04-25T19:52:47.593Z,98.01
2024-04-25T19:55:13.945Z,98.13
2024-04-25T19:57:40.286Z,98.22
2024-04-25T20:00:06.603Z,98.36
2024-04-25T20:02:33.182Z,98.51
2024-04-25T20:04:59.463Z,98.74
2024-04-25T20:07:25.793Z,99.08
2024-04-25T20:09:52.127Z,99.41
2024-04-25T20:12:18.591Z,99.79
2024-04-25T20:14:44.889Z,100.00
2024-04-25T20:17:11.150Z,100.00
2024-04-25T20:19:37.488Z,100.00
2024-04-25T20:22:03.889Z,100.00
2024-04-25T20:24:30.211Z,100.00
2024-04-25T20:26:56.766Z,100.00
2024-04-25T20:29:23.652Z,100.00
2024-04-25T20:31:49.230Z,100.00
2024-04-25T20:34:15.582Z,100.00
2024-04-25T20:36:41.886Z,100.00
2024-04-25T20:39:08.286Z,100.00
2024-04-25T20:41:34.629Z,100.00
2024-04-25T20:44:00.940Z,100.00
2024-04-25T20:46:27.284Z,100.00
2024-04-25T20:48:53.770Z,100.00
2024-04-25T20:51:20.231Z,100.00
2024-04-25T20:53:46.494Z,100.00
2024-04-25T20:56:12.708Z,100.00
2024-04-25T20:58:39.020Z,100.00
2024-04-25T21:01:05.434Z,100.00
2024-04-25T21:03:31.898Z,100.00
2024-04-25T21:05:58.047Z,100.00
2024-04-25T21:08:24.475Z,100.00
2024-04-25T21:10:50.816Z,100.00
2024-04-25T21:13:17.199Z,100.00
2024-04-25T21:15:43.530Z,100.00
2024-04-25T21:18:09.900Z,100.00
2024-04-25T21:20:36.202Z,100.00
2024-04-25T21:23:02.503Z,100.00
2024-04-25T21:25:28.852Z,100.00
2024-04-25T21:27:55.190Z,100.00
2024-04-25T21:30:21.514Z,100.00
2024-04-25T21:32:48.056Z,100.00
2024-04-25T21:35:14.160Z,100.00
2024-04-25T21:37:40.540Z,100.00
2024-04-25T21:40:06.877Z,100.00
2024-04-25T21:42:33.197Z,100.00
2024-04-25T21:44:59.515Z,100.00
2024-04-25T21:47:26.001Z,100.00
2024-04-25T21:49:52.210Z,100.00
2024-04-25T21:52:18.508Z,100.00
2024-04-25T21:54:44.867Z,100.00
2024-04-25T21:57:11.190Z,100.00
2024-04-25T21:59:37.562Z,100.00
2024-04-25T22:02:03.825Z,100.00
2024-04-25T22:04:30.156Z,100.00
2024-04-25T22:06:56.457Z,100.00
2024-04-25T22:09:22.836Z,100.00
2024-04-25T22:11:49.267Z,100.00
2024-04-25T22:14:15.492Z,100.00
2024-04-25T22:16:41.862Z,100.00
2024-04-25T22:19:08.311Z,100.00
2024-04-25T22:21:34.597Z,100.00
2024-04-25T22:24:01.126Z,100.00
2024-04-25T22:26:27.388Z,100.00
2024-04-25T22:28:53.792Z,100.00
2024-04-25T22:31:20.115Z,100.00
2024-04-25T22:33:46.720Z,100.00
2024-04-25T22:36:12.980Z,100.00
2024-04-25T22:38:39.407Z,100.00
2024-04-25T22:41:05.752Z,100.00
2024-04-25T22:43:32.197Z,100.00
2024-04-25T22:45:58.636Z,100.00
2024-04-25T22:48:25.196Z,100.00
2024-04-25T22:50:51.459Z,100.00
2024-04-25T22:53:17.777Z,100.00
2024-04-25T22:55:44.093Z,100.00
2024-04-25T22:58:10.499Z,100.00
2024-04-25T23:00:36.819Z,100.00
2024-04-25T23:03:03.268Z,100.00
2024-04-25T23:05:29.640Z,100.00
2024-04-25T23:07:56.019Z,100.00
2024-04-25T23:10:22.364Z,100.00
2024-04-25T23:12:48.771Z,100.00
2024-04-25T23:15:15.237Z,100.00
2024-04-25T23:17:41.772Z,100.00
2024-04-25T23:20:08.002Z,100.00
2024-04-25T23:22:34.424Z,100.00
2024-04-25T23:25:00.732Z,100.00
2024-04-25T23:27:27.178Z,100.00
2024-04-25T23:29:53.625Z,100.00
2024-04-25T23:32:19.953Z,100.00
2024-04-25T23:34:46.278Z,100.00
2024-04-25T23:37:12.651Z,100.00
2024-04-25T23:39:39.021Z,100.00
2024-04-25T23:42:05.918Z,100.00
2024-04-25T23:44:31.828Z,100.00
2024-04-25T23:46:58.190Z,100.00
2024-04-25T23:49:24.491Z,100.00
2024-04-25T23:51:50.884Z,100.00
2024-04-25T23:54:17.234Z,100.00
2024-04-25T23:56:43.702Z,100.00
2024-04-25T23:59:10.087Z,100.00
